Latest Coastal Weather Observations for Lake Macquarie - Cooranbong

IDN60701

Issued at 9:41 am EST Wednesday 8 July 2020 (issued every 10 minutes, with the page automatically refreshed every 10 minutes)

About coastal observations | Map of coastal stations | Coastal observations for NSW | Marine services | Other Formats
Station Details ID: 061412 Name: LAKE MACQUARIE AWS Lat: -33.09 Lon: 151.46 Height: 6.0 m
Data from the previous 72 hours. | See also: Recent months at Lake Macquarie - Cooranbong
Date/Time
EST
Wind Sea
Height
m
Swell Vis
km
Cloud Weather Temp
°C
Press
hPa
Rain since
9am
mm
Dir  Spd
kts
Gust
kts
Height
m
Period
s
Dir
08/09:30am S 1 5 - - - - - - - 15.2 1031.6 0.0
08/09:00am CALM 0 0 - - - - - - - 14.3 1031.4 2.0
08/08:30am CALM 0 0 - - - - - - - 12.6 1031.2 2.0
08/08:00am W 1 2 - - - - - - - 10.9 1030.9 2.0
08/07:30am CALM 0 0 - - - - - - - 10.5 1030.7 2.0
08/07:00am CALM 0 0 - - - - - - - 9.6 1030.6 2.0
08/06:30am CALM 0 0 - - - - - - - 9.6 1030.4 2.0
08/06:00am CALM 0 0 - - - - - - - 9.4 1030.1 2.0
08/05:30am CALM 0 0 - - - - - - - 9.5 1029.8 2.0
08/05:00am CALM 0 0 - - - - - - - 10.1 1029.6 2.0
08/04:30am CALM 0 0 - - - - - - - 9.9 1029.5 2.0
08/04:00am CALM 0 0 - - - - - - - 10.3 1029.8 2.0
08/03:30am CALM 0 0 - - - - - - - 10.9 1029.9 2.0
08/03:00am SW 1 3 - - - - - - - 11.4 1030.1 2.0
08/02:30am CALM 0 0 - - - - - - - 11.2 1030.0 2.0
08/02:00am SW 1 4 - - - - - - - 11.2 1030.1 2.0
08/01:30am CALM 0 0 - - - - - - - 11.0 1030.0 2.0
08/01:00am CALM 0 2 - - - - - - - 11.7 1030.2 2.0
08/12:30am WSW 1 3 - - - - - - - 11.8 1030.2 2.0
08/12:00am CALM 0 0 - - - - - - Recent precip. 11.5 1030.4 2.0
 
Date/Time
EST
Wind Sea
Height
m
Swell Vis
km
Cloud Weather Temp
°C
Press
hPa
Rain since
9am
mm
Dir  Spd
kts
Gust
kts
Height
m
Period
s
Dir
07/11:30pm CALM 0 0 - - - - - - - 11.8 1030.5 1.8
07/11:00pm SSW 1 2 - - - - - - - 11.7 1030.5 1.8
07/10:30pm WSW 1 3 - - - - - - - 11.7 1030.6 1.4
07/10:00pm SW 1 3 - - - - - - - 11.7 1030.5 0.6
07/09:30pm SW 2 6 - - - - - - - 12.4 1030.4 0.0
07/09:00pm SSE 2 5 - - - - - - - 12.5 1030.3 0.0
07/08:30pm S 2 4 - - - - - - - 13.0 1030.3 0.0
07/08:00pm SE 2 3 - - - - - - - 12.7 1030.2 0.0
07/07:30pm CALM 0 0 - - - - - - - 12.2 1030.1 0.0
07/07:00pm CALM 0 0 - - - - - - - 12.6 1029.8 0.0
07/06:30pm CALM 0 0 - - - - - - - 12.9 1029.5 0.0
07/06:00pm WSW 1 2 - - - - - - - 13.9 1029.4 0.0
07/05:30pm SW 2 2 - - - - - - - 14.5 1029.3 0.0
07/05:00pm CALM 0 0 - - - - - - - 14.9 1029.1 0.0
07/04:30pm SSW 2 5 - - - - - - - 15.4 1028.9 0.0
07/04:00pm SSW 2 6 - - - - - - - 16.0 1028.9 0.0
07/03:30pm S 2 4 - - - - - - - 16.6 1028.6 0.0
07/03:00pm WSW 3 5 - - - - - - - 17.2 1028.4 0.0
07/02:30pm SSW 2 3 - - - - - - - 17.7 1028.3 0.0
07/02:00pm SW 3 6 - - - - - - - 17.7 1028.3 0.0
07/01:30pm SW 2 5 - - - - - - - 17.6 1028.5 0.0
07/01:00pm SW 3 6 - - - - - - - 17.1 1028.8 0.0
07/12:30pm WSW 4 8 - - - - - - - 17.3 1029.0 0.0
07/12:00pm SW 4 7 - - - - - - - 17.7 1029.4 0.0
07/11:30am SSW 4 6 - - - - - - - 16.7 1029.8 0.0
07/11:00am SSW 4 8 - - - - - - - 16.4 1030.0 0.0
07/10:30am SW 4 8 - - - - - - - 15.8 1030.1 0.0
07/10:00am SSW 3 6 - - - - - - - 15.2 1030.3 0.0
07/09:30am SSW 4 8 - - - - - - - 14.3 1030.2 0.0
07/09:00am CALM 0 0 - - - - - - - 11.6 1030.2 0.0
07/08:30am CALM 0 0 - - - - - - - 9.5 1030.0 0.0
07/08:00am CALM 0 0 - - - - - - - 8.2 1029.7 0.0
07/07:30am CALM 0 0 - - - - - - - 7.4 1029.6 0.0
07/07:00am CALM 0 0 - - - - - - - 6.4 1029.4 0.0
07/06:30am CALM 0 0 - - - - - - - 6.3 1029.1 0.0
07/06:00am CALM 0 0 - - - - - - - 6.4 1028.8 0.0
07/05:30am CALM 0 0 - - - - - - - 6.7 1028.3 0.0
07/05:00am CALM 0 0 - - - - - - - 7.4 1028.0 0.0
07/04:30am CALM 0 0 - - - - - - - 7.7 1028.0 0.0
07/04:00am CALM 0 0 - - - - - - - 7.8 1027.9 0.0
07/03:30am NE 1 3 - - - - - - - 7.8 1028.0 0.0
07/03:00am CALM 0 0 - - - - - - - 7.6 1028.0 0.0
07/02:30am CALM 0 0 - - - - - - - 7.4 1028.1 0.0
07/02:00am CALM 0 0 - - - - - - - 7.2 1028.1 0.0
07/01:30am CALM 0 0 - - - - - - - 7.1 1028.1 0.0
07/01:00am CALM 0 0 - - - - - - - 7.1 1028.2 0.0
07/12:30am CALM 0 0 - - - - - - - 6.8 1028.3 0.0
07/12:00am CALM 0 0 - - - - - - - 6.3 1028.7 0.0
 
Date/Time
EST
Wind Sea
Height
m
Swell Vis
km
Cloud Weather Temp
°C
Press
hPa
Rain since
9am
mm
Dir  Spd
kts
Gust
kts
Height
m
Period
s
Dir
06/11:30pm CALM 0 0 - - - - - - - 6.6 1028.8 0.0
06/11:00pm CALM 0 0 - - - - - - - 6.6 1029.0 0.0
06/10:30pm CALM 0 0 - - - - - - - 6.6 1029.0 0.0
06/10:00pm CALM 0 0 - - - - - - - 6.2 1029.0 0.0
06/09:30pm CALM 0 0 - - - - - - - 6.6 1028.9 0.0
06/09:00pm CALM 0 0 - - - - - - - 6.9 1028.8 0.0
06/08:30pm CALM 0 0 - - - - - - - 7.2 1028.7 0.0
06/08:00pm CALM 0 0 - - - - - - - 7.6 1028.6 0.0
06/07:30pm CALM 0 0 - - - - - - - 8.1 1028.3 0.0
06/07:00pm CALM 0 0 - - - - - - - 8.6 1028.1 0.0
06/06:30pm CALM 0 0 - - - - - - - 9.2 1027.7 0.0
06/06:00pm CALM 0 0 - - - - - - - 10.2 1027.3 0.0
06/05:30pm CALM 0 0 - - - - - - - 10.9 1027.1 0.0
06/05:00pm CALM 0 0 - - - - - - - 13.1 1026.8 0.0
06/04:30pm ESE 1 3 - - - - - - - 15.0 1026.6 0.0
06/04:00pm E 3 4 - - - - - - - 16.3 1026.4 0.0
06/03:30pm E 4 7 - - - - - - - 16.8 1026.3 0.0
06/03:00pm ESE 5 8 - - - - - - - 17.3 1026.1 0.0
06/02:30pm W 2 4 - - - - - - - 18.2 1026.0 0.0
06/02:00pm NW 2 5 - - - - - - - 18.5 1026.0 0.0
06/01:30pm SSW 2 5 - - - - - - - 18.0 1026.2 0.0
06/01:00pm S 2 5 - - - - - - - 17.9 1026.5 0.0
06/12:30pm WSW 4 8 - - - - - - - 17.2 1026.8 0.0
06/12:00pm WSW 4 6 - - - - - - - 16.6 1027.2 0.0
06/11:30am SW 3 6 - - - - - - - 16.7 1027.7 0.0
06/11:00am W 4 7 - - - - - - - 16.0 1028.0 0.0
06/10:30am W 4 7 - - - - - - - 15.5 1028.3 0.0
06/10:00am WSW 4 6 - - - - - - - 14.5 1028.4 0.0
06/09:30am CALM 0 0 - - - - - - - 13.5 1028.4 0.0
06/09:00am CALM 0 0 - - - - - - - 9.8 1028.2 0.0
06/08:30am CALM 0 0 - - - - - - - 7.1 1027.8 0.0
06/08:00am CALM 0 0 - - - - - - - 4.8 1027.6 0.0
06/07:30am CALM 0 0 - - - - - - - 3.0 1027.3 0.0
06/07:00am CALM 0 0 - - - - - - - 2.7 1027.0 0.0
06/06:30am CALM 0 0 - - - - - - - 2.9 1026.7 0.0
06/06:00am CALM 0 0 - - - - - - - 2.9 1026.3 0.0
06/05:30am CALM 0 0 - - - - - - - 3.0 1026.0 0.0
06/05:00am CALM 0 0 - - - - - - - 2.9 1025.8 0.0
06/04:30am CALM 0 0 - - - - - - - 3.2 1025.7 0.0
06/04:00am CALM 0 0 - - - - - - - 3.4 1025.7 0.0
06/03:30am CALM 0 0 - - - - - - - 3.4 1025.9 0.0
06/03:00am CALM 0 0 - - - - - - - 3.5 1025.9 0.0
06/02:30am CALM 0 0 - - - - - - - 3.3 1025.8 0.0
06/02:00am CALM 0 0 - - - - - - - 3.3 1025.7 0.0
06/01:30am CALM 0 0 - - - - - - - 3.4 1025.6 0.0
06/01:00am CALM 0 0 - - - - - - - 3.7 1025.6 0.0
06/12:30am CALM 0 0 - - - - - - - 4.0 1025.5 0.0
06/12:00am CALM 0 0 - - - - - - - 4.3 1025.5 0.0
 
Date/Time
EST
Wind Sea
Height
m
Swell Vis
km
Cloud Weather Temp
°C
Press
hPa
Rain since
9am
mm
Dir  Spd
kts
Gust
kts
Height
m
Period
s
Dir
05/11:30pm CALM 0 0 - - - - - - - 4.6 1025.7 0.0
05/11:00pm CALM 0 0 - - - - - - - 4.7 1025.5 0.0
05/10:30pm CALM 0 0 - - - - - - - 5.0 1025.2 0.0
05/10:00pm CALM 0 0 - - - - - - - 5.3 1025.0 0.0
05/09:30pm CALM 0 0 - - - - - - - 5.6 1024.7 0.0
05/09:00pm CALM 0 0 - - - - - - - 5.9 1024.5 0.0
05/08:30pm CALM 0 0 - - - - - - - 6.5 1024.4 0.0
05/08:00pm CALM 0 0 - - - - - - - 7.1 1024.2 0.0
05/07:30pm NW 1 3 - - - - - - - 7.2 1024.0 0.0
05/07:00pm CALM 0 0 - - - - - - - 7.9 1023.6 0.0
05/06:30pm CALM 0 0 - - - - - - - 8.9 1023.3 0.0
05/06:00pm CALM 0 0 - - - - - - - 9.4 1022.9 0.0
05/05:30pm CALM 0 0 - - - - - - - 10.7 1022.4 0.0
05/05:00pm CALM 0 0 - - - - - - - 12.6 1022.1 0.0
05/04:30pm CALM 0 1 - - - - - - - 14.6 1021.8 0.0
05/04:00pm CALM 0 2 - - - - - - - 17.0 1021.7 0.0
05/03:30pm SSW 2 3 - - - - - - - 17.4 1021.6 0.0
05/03:00pm WSW 2 7 - - - - - - - 18.1 1021.6 0.0
05/02:30pm WSW 4 7 - - - - - - - 18.0 1021.5 0.0
05/02:00pm WSW 5 9 - - - - - - - 17.7 1021.4 0.0
05/01:30pm WSW 5 9 - - - - - - - 17.5 1021.4 0.0
05/01:00pm WSW 5 9 - - - - - - - 17.2 1021.5 0.0
05/12:30pm WSW 6 11 - - - - - - - 16.7 1021.6 0.0
05/12:00pm W 5 9 - - - - - - - 16.6 1021.9 0.0
05/11:30am WSW 7 13 - - - - - - - 15.8 1022.2 0.0
05/11:00am W 7 13 - - - - - - - 15.9 1022.6 0.0
05/10:30am WSW 6 11 - - - - - - - 15.3 1022.7 0.0
05/10:00am W 6 11 - - - - - - - 15.2 1022.6 0.0

Other formats

Comma delimited format used in spreadsheet applications
http://www.bom.gov.au/fwo/IDN60701/IDN60701.95767.axf

JavaScript Object Notation format (JSON) in row-major order
http://www.bom.gov.au/fwo/IDN60701/IDN60701.95767.json

Data quality

Most of these data are generated automatically and are frequently updated. Quality checks on data are not normally performed. It is possible for incorrect values to appear. Refer to information at About Latest Weather Observations and please check the disclaimer before using these data.